Time;durP1;ratioP1;P1;durP2;ratioP2;P2;SDS_P1;SDS_P2;PMS_P1;PMS_P2;Temp;Humidity;BMP_temperature;BMP_pressure;BME280_temperature;BME280_humidity;BME280_pressure;Samples;Min_cycle;Max_cycle;Signal;HPM_P1;HPM_P2
2022/12/10 00:01:25;;;;;;;;;;;;;;;8.22;77.38;98851.88;5303584;32;35264;-75
2022/12/10 00:04:27;;;;;;;;;;;;;;;8.88;76.05;98843.88;5318925;32;35981;-78
2022/12/10 00:07:29;;;;;;;;;;;;;;;8.65;75.66;98846.03;5307300;32;36041;-76
2022/12/10 00:10:30;;;;;;;;;;;;;;;9.22;74.20;98840.19;5319141;32;35435;-76
2022/12/10 00:13:33;;;;;;;;;;;;;;;9.64;70.26;98834.19;5305577;32;35394;-68
2022/12/10 00:16:35;;;;;;;;;;;;;;;8.24;76.49;98834.31;5316984;32;34919;-75
2022/12/10 00:19:37;;;;;;;;;;;;;;;8.56;75.34;98840.44;5312841;32;36773;-75
2022/12/10 00:22:39;;;;;;;;;;;;;;;8.17;76.64;98848.66;5306978;32;35409;-66
2022/12/10 00:25:41;;;;;;;;;;;;;;;8.63;76.58;98850.53;5324557;32;35911;-66
2022/12/10 00:28:43;;;;;;;;;;;;;;;9.06;74.69;98863.81;5308972;32;35469;-76
2022/12/10 00:31:45;;;;;;;;;;;;;;;8.72;76.11;98858.78;5326543;32;35463;-76
2022/12/10 00:34:47;;;;;;;;;;;;;;;9.11;74.85;98860.94;5309286;32;35731;-67
2022/12/10 00:37:49;;;;;;;;;;;;;;;8.91;75.55;98860.28;5319347;32;36386;-77
2022/12/10 00:40:51;;;;;;;;;;;;;;;9.00;74.79;98866.78;5313982;32;45014;-74
2022/12/10 00:43:53;;;;;;;;;;;;;;;9.13;74.49;98870.38;5283450;32;35644;-76
2022/12/10 00:46:55;;;;;;;;;;;;;;;9.38;73.92;98871.59;5323190;32;36132;-67
2022/12/10 00:49:57;;;;;;;;;;;;;;;9.25;73.96;98879.31;5309226;32;35502;-78
2022/12/10 00:52:59;;;;;;;;;;;;;;;10.14;69.73;98882.78;5325626;32;34768;-76
2022/12/10 00:56:03;;;;;;;;;;;;;;;8.72;75.86;98891.06;5309153;32;34727;-79
2022/12/10 00:59:05;;;;;;;;;;;;;;;9.11;75.13;98892.38;5317681;32;35331;-66
2022/12/10 01:02:07;;;;;;;;;;;;;;;7.70;79.94;98896.47;5317696;32;36656;-75
2022/12/10 01:05:09;;;;;;;;;;;;;;;9.18;73.56;98893.72;5305809;32;35569;-67
2022/12/10 01:08:10;;;;;;;;;;;;;;;7.67;80.09;98901.88;5325666;32;35384;-67
2022/12/10 01:11:13;;;;;;;;;;;;;;;7.36;82.49;98899.94;5308807;32;34920;-67
2022/12/10 01:14:17;;;;;;;;;;;;;;;7.98;81.14;98893.28;5319098;32;35076;-75
2022/12/10 01:17:21;;;;;;;;;;;;;;;8.64;76.63;98908.97;5311790;32;36107;-67
2022/12/10 01:20:23;;;;;;;;;;;;;;;8.58;77.44;98909.31;5314435;32;44702;-76
2022/12/10 01:23:24;;;;;;;;;;;;;;;8.77;76.83;98904.75;5319441;32;34790;-66
2022/12/10 01:26:28;;;;;;;;;;;;;;;9.59;73.50;98904.44;5308352;32;36489;-79
2022/12/10 01:29:30;;;;;;;;;;;;;;;8.34;77.18;98912.28;5325429;32;35555;-76
2022/12/10 01:32:32;;;;;;;;;;;;;;;9.59;73.13;98909.66;5307367;32;36422;-67
2022/12/10 01:35:36;;;;;;;;;;;;;;;8.57;76.36;98903.22;5326274;32;35075;-75
2022/12/10 01:38:38;;;;;;;;;;;;;;;9.05;75.18;98901.44;5307529;32;36026;-66
2022/12/10 01:41:56;;;;;;;;;;;;;;;9.95;71.01;98903.19;5303772;32;35629;-67
2022/12/10 01:45:00;;;;;;;;;;;;;;;9.34;73.78;98886.69;5311417;32;45039;-68
2022/12/10 01:48:02;;;;;;;;;;;;;;;9.93;71.52;98884.91;5307867;32;36208;-66
2022/12/10 01:51:09;;;;;;;;;;;;;;;10.05;70.48;98883.34;5320606;32;35402;-68
2022/12/10 01:54:13;;;;;;;;;;;;;;;10.21;69.73;98891.97;5302115;32;35850;-76
2022/12/10 01:57:25;;;;;;;;;;;;;;;10.17;70.09;98887.81;5321397;32;36898;-67
2022/12/10 02:00:26;;;;;;;;;;;;;;;10.21;70.02;98889.34;5314534;32;46390;-67
2022/12/10 02:03:47;;;;;;;;;;;;;;;9.96;70.52;98904.88;5307773;32;35256;-67
2022/12/10 02:07:06;;;;;;;;;;;;;;;10.50;67.81;98918.25;5323165;32;35916;-68
2022/12/10 02:10:08;;;;;;;;;;;;;;;9.91;70.58;98925.31;5304244;32;36101;-76
2022/12/10 02:13:23;;;;;;;;;;;;;;;10.05;71.12;98922.72;5319604;32;36313;-75
2022/12/10 02:16:36;;;;;;;;;;;;;;;9.38;73.30;98930.12;5318862;32;47923;-67
2022/12/10 02:19:46;;;;;;;;;;;;;;;9.50;73.19;98925.97;5307973;32;34880;-76
2022/12/10 02:22:55;;;;;;;;;;;;;;;9.44;73.72;98932.41;5317384;32;35227;-66
2022/12/10 02:26:00;;;;;;;;;;;;;;;9.68;72.89;98924.91;5303067;32;45105;-68
2022/12/10 02:29:18;;;;;;;;;;;;;;;9.93;71.83;98924.28;5321049;32;34861;-66
2022/12/10 02:32:27;;;;;;;;;;;;;;;9.61;73.60;98934.06;5325825;32;43797;-66
2022/12/10 02:35:30;;;;;;;;;;;;;;;9.69;73.04;98933.59;5306134;32;35245;-76
2022/12/10 02:38:33;;;;;;;;;;;;;;;10.23;70.20;98932.13;5324987;32;35281;-75
2022/12/10 02:41:35;;;;;;;;;;;;;;;10.40;70.41;98927.63;5296746;32;35635;-75
2022/12/10 02:44:37;;;;;;;;;;;;;;;10.34;70.63;98922.75;5309423;32;35287;-76
2022/12/10 02:47:39;;;;;;;;;;;;;;;10.18;71.34;98923.66;5292273;32;36080;-75
2022/12/10 02:50:41;;;;;;;;;;;;;;;9.60;73.42;98914.00;5305907;32;35637;-66
2022/12/10 02:53:43;;;;;;;;;;;;;;;10.16;71.70;98915.00;5324235;32;35752;-75
2022/12/10 02:56:48;;;;;;;;;;;;;;;8.41;78.47;98923.31;5307751;32;35550;-67
2022/12/10 02:59:56;;;;;;;;;;;;;;;8.11;81.57;98920.47;5320015;32;42054;-66
2022/12/10 03:03:14;;;;;;;;;;;;;;;8.28;81.01;98930.94;5308690;32;35202;-77
2022/12/10 03:06:18;;;;;;;;;;;;;;;7.58;83.61;98938.00;5311792;32;35998;-67
2022/12/10 03:09:22;;;;;;;;;;;;;;;8.79;80.72;98933.47;5309264;32;45355;-74
2022/12/10 03:12:42;;;;;;;;;;;;;;;8.95;77.61;98934.31;5307618;32;35806;-74
2022/12/10 03:15:43;;;;;;;;;;;;;;;8.23;80.25;98940.78;5322733;32;35523;-66
2022/12/10 03:18:47;;;;;;;;;;;;;;;7.80;80.68;98950.03;5306557;32;35950;-67
2022/12/10 03:21:49;;;;;;;;;;;;;;;8.01;81.21;98946.31;5322113;32;35856;-74
2022/12/10 03:24:51;;;;;;;;;;;;;;;8.31;79.41;98956.13;5302893;32;44958;-67
2022/12/10 03:27:54;;;;;;;;;;;;;;;8.23;80.99;98960.88;5308222;32;35553;-76
2022/12/10 03:30:56;;;;;;;;;;;;;;;8.94;76.96;98971.94;5319765;32;35868;-66
2022/12/10 03:33:58;;;;;;;;;;;;;;;8.85;77.42;98967.19;5305364;32;35784;-66
2022/12/10 03:37:00;;;;;;;;;;;;;;;8.17;77.35;98963.81;5324004;32;34511;-67
2022/12/10 03:40:02;;;;;;;;;;;;;;;9.05;74.94;98972.19;5301928;32;35380;-76
2022/12/10 03:43:04;;;;;;;;;;;;;;;8.24;77.71;98963.41;5292878;32;34669;-67
2022/12/10 03:46:06;;;;;;;;;;;;;;;7.62;81.27;98962.25;5305603;32;35333;-76
2022/12/10 03:49:09;;;;;;;;;;;;;;;8.68;76.92;98962.88;5306465;32;34703;-77
2022/12/10 03:52:12;;;;;;;;;;;;;;;8.49;76.50;98986.56;5320627;32;35976;-67
2022/12/10 03:55:14;;;;;;;;;;;;;;;8.32;78.37;98992.69;5306527;32;36088;-67
2022/12/10 03:58:15;;;;;;;;;;;;;;;8.39;79.27;98993.22;5323830;32;35524;-75
2022/12/10 04:01:21;;;;;;;;;;;;;;;8.78;77.19;98978.94;5308903;32;44620;-76
2022/12/10 04:04:23;;;;;;;;;;;;;;;9.57;72.96;98979.75;5323761;32;35691;-74
2022/12/10 04:07:25;;;;;;;;;;;;;;;7.96;75.82;98977.06;5312044;32;36358;-68
2022/12/10 04:10:27;;;;;;;;;;;;;;;8.00;77.77;98986.47;5309701;32;34811;-68
2022/12/10 04:16:51;;;;;;;;;;;;;;;8.64;75.45;98998.88;5306092;32;44554;-75
2022/12/10 04:19:54;;;;;;;;;;;;;;;8.99;73.55;98998.72;5326610;32;35589;-75
2022/12/10 04:27:03;;;;;;;;;;;;;;;9.78;69.26;98989.00;5309321;32;35359;-66
2022/12/10 04:29:39;;;;;;;;;;;;;;;8.88;72.17;98987.97;5317784;32;36646;-67
2022/12/10 04:32:41;;;;;;;;;;;;;;;8.29;75.32;98998.06;5308957;32;35536;-66
2022/12/10 04:35:43;;;;;;;;;;;;;;;7.46;78.58;99001.34;5324976;32;34787;-76
2022/12/10 04:38:44;;;;;;;;;;;;;;;7.02;81.62;99009.53;5306493;32;35856;-67
2022/12/10 04:41:47;;;;;;;;;;;;;;;7.90;79.20;99003.53;5303096;32;35517;-66
2022/12/10 04:44:49;;;;;;;;;;;;;;;8.04;77.68;98998.47;5301696;32;35708;-76
2022/12/10 04:47:51;;;;;;;;;;;;;;;7.89;77.60;98988.78;5305966;32;44416;-77
2022/12/10 04:50:53;;;;;;;;;;;;;;;7.47;80.14;98991.72;5326565;32;35574;-67
2022/12/10 04:53:54;;;;;;;;;;;;;;;7.66;80.40;98991.69;5308362;32;35098;-75
2022/12/10 04:56:56;;;;;;;;;;;;;;;7.56;80.37;99001.75;5323629;32;35570;-67
2022/12/10 04:59:58;;;;;;;;;;;;;;;8.35;77.59;98999.50;5309054;32;35953;-77
2022/12/10 05:03:00;;;;;;;;;;;;;;;7.78;78.87;99002.37;5307926;32;34949;-76
2022/12/10 05:06:14;;;;;;;;;;;;;;;8.27;78.05;98999.91;5319365;32;35907;-77
2022/12/10 05:09:16;;;;;;;;;;;;;;;8.86;74.90;99009.03;5301586;32;35628;-75
2022/12/10 05:12:18;;;;;;;;;;;;;;;8.46;74.68;98996.38;5325980;32;35121;-75
2022/12/10 05:15:20;;;;;;;;;;;;;;;7.95;76.36;99005.94;5306667;32;46978;-75
2022/12/10 05:18:21;;;;;;;;;;;;;;;8.01;75.71;99003.88;5323012;32;44558;-67
2022/12/10 05:23:27;;;;;;;;;;;;;;;7.35;77.83;99021.94;5309062;32;35434;-67
2022/12/10 05:24:46;;;;;;;;;;;;;;;6.67;82.73;99018.13;5309130;32;36085;-67
2022/12/10 05:27:48;;;;;;;;;;;;;;;6.89;82.38;99044.09;5325528;32;35327;-66
2022/12/10 05:30:50;;;;;;;;;;;;;;;7.65;80.29;99043.13;5308606;32;43811;-67
2022/12/10 05:33:53;;;;;;;;;;;;;;;7.14;81.31;99038.63;5326082;32;35450;-76
2022/12/10 05:36:55;;;;;;;;;;;;;;;7.17;81.32;99041.09;5307781;32;35093;-67
2022/12/10 05:39:57;;;;;;;;;;;;;;;7.69;79.11;99044.69;5316766;32;35363;-79
2022/12/10 05:42:59;;;;;;;;;;;;;;;7.25;81.62;99038.97;5294817;32;35531;-77
2022/12/10 05:46:01;;;;;;;;;;;;;;;7.41;81.10;99039.13;5303391;32;35858;-79
2022/12/10 05:49:04;;;;;;;;;;;;;;;6.83;81.91;99040.03;5323377;32;34777;-76
2022/12/10 05:52:06;;;;;;;;;;;;;;;7.42;79.62;99041.66;5306267;32;35287;-66
2022/12/10 05:55:08;;;;;;;;;;;;;;;7.65;78.00;99047.53;5326214;32;35630;-76
2022/12/10 05:58:10;;;;;;;;;;;;;;;7.59;77.49;99043.44;5308082;32;35414;-74
2022/12/10 06:01:13;;;;;;;;;;;;;;;7.37;79.13;99048.00;5316951;32;36028;-77
2022/12/10 06:04:15;;;;;;;;;;;;;;;6.61;81.56;99045.34;5311607;32;35883;-66
2022/12/10 06:07:17;;;;;;;;;;;;;;;7.32;80.25;99051.66;5308910;32;36124;-75
2022/12/10 06:10:19;;;;;;;;;;;;;;;7.80;77.25;99050.25;5323462;32;35105;-67
2022/12/10 06:13:20;;;;;;;;;;;;;;;7.56;77.82;99056.66;5307264;32;45160;-67
2022/12/10 06:16:23;;;;;;;;;;;;;;;8.01;74.97;99064.03;5323646;32;35550;-67
2022/12/10 06:19:25;;;;;;;;;;;;;;;7.31;78.35;99068.28;5299881;32;35428;-74
2022/12/10 06:22:27;;;;;;;;;;;;;;;7.02;79.64;99067.03;5311722;32;35579;-75
2022/12/10 06:25:29;;;;;;;;;;;;;;;7.57;77.32;99077.50;5319920;32;37937;-68
2022/12/10 06:28:30;;;;;;;;;;;;;;;7.08;79.64;99078.94;5306376;32;36144;-67
2022/12/10 06:31:32;;;;;;;;;;;;;;;8.09;75.83;99080.19;5324946;32;35573;-76
2022/12/10 06:34:34;;;;;;;;;;;;;;;6.97;78.78;99074.22;5309002;32;34704;-75
2022/12/10 06:37:43;;;;;;;;;;;;;;;7.32;77.79;99071.72;5324236;32;35501;-76
2022/12/10 06:40:45;;;;;;;;;;;;;;;7.52;77.28;99079.47;5305985;32;36849;-74
2022/12/10 06:43:47;;;;;;;;;;;;;;;7.36;78.37;99081.13;5286159;32;35930;-76
2022/12/10 06:46:49;;;;;;;;;;;;;;;7.28;78.50;99083.28;5320310;32;35748;-74
2022/12/10 06:49:51;;;;;;;;;;;;;;;7.27;78.70;99094.63;5307811;32;45195;-66
2022/12/10 06:52:53;;;;;;;;;;;;;;;7.95;75.89;99085.28;5317574;32;35327;-67
2022/12/10 06:55:57;;;;;;;;;;;;;;;7.74;75.34;99088.94;5306629;32;35945;-75
2022/12/10 06:58:59;;;;;;;;;;;;;;;6.95;78.36;99099.53;5322239;32;36324;-67
2022/12/10 07:02:01;;;;;;;;;;;;;;;6.63;79.91;99098.34;5307992;32;35460;-77
2022/12/10 07:05:03;;;;;;;;;;;;;;;6.65;79.33;99085.25;5309893;32;34650;-77
2022/12/10 07:08:05;;;;;;;;;;;;;;;6.37;81.16;99089.03;5324259;32;34799;-75
2022/12/10 07:11:08;;;;;;;;;;;;;;;5.81;82.11;99089.59;5306808;32;35398;-76
2022/12/10 07:14:14;;;;;;;;;;;;;;;6.40;81.62;99094.13;5324477;32;36141;-67
2022/12/10 07:17:15;;;;;;;;;;;;;;;6.82;79.14;99089.69;5314353;32;35497;-75
2022/12/10 07:20:18;;;;;;;;;;;;;;;6.81;79.20;99080.19;5324573;32;35647;-68
2022/12/10 07:23:20;;;;;;;;;;;;;;;6.61;78.60;99097.56;5300515;32;36559;-67
2022/12/10 07:26:22;;;;;;;;;;;;;;;7.18;76.41;99089.81;5316112;32;36136;-66
2022/12/10 07:29:26;;;;;;;;;;;;;;;6.11;79.70;99097.09;5317676;32;36167;-75
2022/12/10 07:32:28;;;;;;;;;;;;;;;6.10;80.70;99093.63;5307247;32;36033;-66
2022/12/10 07:35:30;;;;;;;;;;;;;;;7.18;76.59;99076.75;5312832;32;35442;-67
2022/12/10 07:38:31;;;;;;;;;;;;;;;7.37;73.33;99054.06;5308361;32;35553;-66
2022/12/10 07:41:34;;;;;;;;;;;;;;;6.55;77.16;99052.59;5314413;32;34749;-66
2022/12/10 07:44:36;;;;;;;;;;;;;;;6.75;76.94;99057.78;5296773;32;37194;-76
2022/12/10 07:47:38;;;;;;;;;;;;;;;6.33;79.20;99064.00;5308401;32;35978;-77
2022/12/10 07:50:40;;;;;;;;;;;;;;;6.86;77.17;99066.00;5323766;32;35523;-76
2022/12/10 07:53:43;;;;;;;;;;;;;;;6.55;77.91;99078.72;5308901;32;35859;-67
2022/12/10 07:56:45;;;;;;;;;;;;;;;6.30;78.58;99090.19;5326370;32;36166;-66
2022/12/10 07:59:47;;;;;;;;;;;;;;;7.00;73.85;99092.34;5305169;32;36237;-66
2022/12/10 08:02:49;;;;;;;;;;;;;;;5.98;78.70;99109.78;5316707;32;35928;-67
2022/12/10 08:06:10;;;;;;;;;;;;;;;6.76;75.16;99104.75;5308706;32;45247;-75
2022/12/10 08:09:12;;;;;;;;;;;;;;;7.25;74.01;99097.31;5313642;32;35768;-66
2022/12/10 08:12:14;;;;;;;;;;;;;;;6.99;74.96;99074.13;5325014;32;35989;-75
2022/12/10 08:15:16;;;;;;;;;;;;;;;6.78;76.21;99083.78;5308463;32;35491;-67
2022/12/10 08:18:18;;;;;;;;;;;;;;;8.24;70.06;99073.34;5325766;32;35544;-68
2022/12/10 08:21:21;;;;;;;;;;;;;;;7.42;70.99;99078.25;5308917;32;45665;-69
2022/12/10 08:24:22;;;;;;;;;;;;;;;8.54;68.60;99081.44;5312344;32;35465;-66
2022/12/10 08:27:24;;;;;;;;;;;;;;;8.01;68.73;99074.50;5320836;32;35911;-67
2022/12/10 08:30:27;;;;;;;;;;;;;;;7.56;70.97;99067.97;5306276;32;35508;-68
2022/12/10 08:33:28;;;;;;;;;;;;;;;7.67;72.21;99075.31;5326142;32;35817;-67
2022/12/10 08:36:30;;;;;;;;;;;;;;;7.56;72.12;99067.97;5306298;32;35432;-75
2022/12/10 08:39:33;;;;;;;;;;;;;;;7.40;72.09;99064.37;5322799;32;35051;-66
2022/12/10 08:42:35;;;;;;;;;;;;;;;7.31;73.54;99067.44;5280463;32;34969;-76
2022/12/10 08:45:37;;;;;;;;;;;;;;;8.81;66.53;99046.88;5304057;32;35518;-68
2022/12/10 08:48:39;;;;;;;;;;;;;;;8.11;68.75;99061.78;5320546;32;35837;-76
2022/12/10 08:51:41;;;;;;;;;;;;;;;8.19;68.64;99070.13;5309681;32;35229;-68
2022/12/10 08:54:42;;;;;;;;;;;;;;;8.34;68.45;99090.28;5323525;32;35542;-78
2022/12/10 08:57:44;;;;;;;;;;;;;;;7.35;70.53;99087.28;5309191;32;36188;-76
2022/12/10 09:00:47;;;;;;;;;;;;;;;7.93;70.45;99084.50;5326877;32;36078;-76
2022/12/10 09:03:49;;;;;;;;;;;;;;;8.50;67.08;99089.53;5308029;32;35574;-67
2022/12/10 09:06:52;;;;;;;;;;;;;;;7.50;71.04;99099.63;5312006;32;45154;-76
2022/12/10 09:09:54;;;;;;;;;;;;;;;7.88;70.64;99096.97;5324984;32;35602;-67
2022/12/10 09:12:56;;;;;;;;;;;;;;;8.24;68.79;99090.81;5307790;32;35492;-66
2022/12/10 09:16:04;;;;;;;;;;;;;;;8.63;67.03;99095.84;5326095;32;35794;-67
2022/12/10 09:19:06;;;;;;;;;;;;;;;9.34;63.56;99087.69;5308345;32;35232;-78
2022/12/10 09:22:08;;;;;;;;;;;;;;;7.81;68.44;99106.88;5324384;32;35570;-75
2022/12/10 09:25:10;;;;;;;;;;;;;;;8.89;65.69;99092.72;5309439;32;34830;-67
2022/12/10 09:28:12;;;;;;;;;;;;;;;7.78;69.54;99099.16;5308138;32;35413;-67
2022/12/10 09:31:15;;;;;;;;;;;;;;;7.90;70.84;99089.88;5326075;32;35106;-66
2022/12/10 09:34:21;;;;;;;;;;;;;;;7.54;72.03;99076.81;5308665;32;47225;-76
2022/12/10 09:37:23;;;;;;;;;;;;;;;8.23;69.00;99091.75;5325551;32;34830;-76
2022/12/10 09:40:34;;;;;;;;;;;;;;;8.40;68.51;99092.63;5307359;32;35405;-68
2022/12/10 09:43:49;;;;;;;;;;;;;;;7.95;71.38;99087.88;5292549;32;35645;-75
2022/12/10 09:46:52;;;;;;;;;;;;;;;7.71;71.37;99074.22;5312931;32;45289;-76
2022/12/10 09:49:57;;;;;;;;;;;;;;;7.67;71.06;99066.62;5303529;32;34663;-76
2022/12/10 09:52:59;;;;;;;;;;;;;;;8.81;67.96;99057.38;5324832;32;35923;-78
2022/12/10 09:56:02;;;;;;;;;;;;;;;8.27;68.13;99061.88;5301184;32;34872;-77
2022/12/10 09:59:06;;;;;;;;;;;;;;;8.08;69.06;99054.13;5322343;32;35379;-76
2022/12/10 10:02:25;;;;;;;;;;;;;;;7.35;73.17;99050.69;5301937;32;35856;-78
2022/12/10 10:05:28;;;;;;;;;;;;;;;7.55;71.55;99047.97;5307510;32;46098;-77
2022/12/10 10:08:38;;;;;;;;;;;;;;;7.89;71.48;99035.88;5322480;32;35482;-68
2022/12/10 10:11:40;;;;;;;;;;;;;;;7.76;71.58;99045.25;5304979;32;36178;-66
2022/12/10 10:14:42;;;;;;;;;;;;;;;7.47;71.77;99038.78;5321344;32;36050;-69
2022/12/10 10:17:45;;;;;;;;;;;;;;;8.05;69.53;99039.44;5304032;32;34982;-77
2022/12/10 10:20:47;;;;;;;;;;;;;;;7.66;70.10;99039.59;5305637;32;35465;-69
2022/12/10 10:23:49;;;;;;;;;;;;;;;7.67;69.19;99037.84;5312298;32;36486;-76
2022/12/10 10:26:52;;;;;;;;;;;;;;;6.70;73.66;99036.28;5307118;32;47840;-69
2022/12/10 10:29:55;;;;;;;;;;;;;;;7.18;72.06;99040.19;5324095;32;35562;-76
2022/12/10 10:32:59;;;;;;;;;;;;;;;8.41;68.02;99038.50;5304893;32;35134;-75
2022/12/10 10:36:01;;;;;;;;;;;;;;;8.27;69.07;99033.09;5320751;32;35239;-67
2022/12/10 10:39:09;;;;;;;;;;;;;;;8.36;67.97;99027.41;5304517;32;35922;-68
2022/12/10 10:42:11;;;;;;;;;;;;;;;7.91;70.16;99033.16;5293123;32;36203;-75
2022/12/10 10:45:31;;;;;;;;;;;;;;;8.45;66.17;99034.81;5304168;32;35844;-68
2022/12/10 10:48:33;;;;;;;;;;;;;;;8.16;67.58;99038.88;5306430;32;34690;-78
2022/12/10 10:51:35;;;;;;;;;;;;;;;7.96;68.31;99047.72;5323442;32;35021;-77
2022/12/10 10:54:38;;;;;;;;;;;;;;;7.30;71.36;99053.53;5304879;32;36834;-77
2022/12/10 10:57:42;;;;;;;;;;;;;;;7.36;71.90;99048.94;5320256;32;35274;-70
2022/12/10 11:00:52;;;;;;;;;;;;;;;8.33;67.53;99038.03;5306988;32;35884;-66
2022/12/10 11:03:55;;;;;;;;;;;;;;;7.59;69.48;99046.88;5302781;32;45181;-76
2022/12/10 11:06:59;;;;;;;;;;;;;;;8.13;67.49;99039.88;5321679;32;35461;-68
2022/12/10 11:10:02;;;;;;;;;;;;;;;8.50;67.37;99026.69;5306613;32;34808;-67
2022/12/10 11:13:06;;;;;;;;;;;;;;;7.89;66.61;99028.03;5319932;32;35677;-66
2022/12/10 11:16:14;;;;;;;;;;;;;;;7.69;70.19;99022.94;5305914;32;36170;-68
2022/12/10 11:19:20;;;;;;;;;;;;;;;7.71;69.42;99011.47;5313956;32;35350;-67
2022/12/10 11:22:23;;;;;;;;;;;;;;;7.36;70.32;99015.78;5316106;32;45628;-69
2022/12/10 11:25:33;;;;;;;;;;;;;;;7.98;69.61;99009.22;5304785;32;35801;-69
2022/12/10 11:28:47;;;;;;;;;;;;;;;7.52;71.24;99011.50;5322986;32;38530;-66
2022/12/10 11:32:08;;;;;;;;;;;;;;;6.84;73.36;99007.78;5305347;32;36123;-77
2022/12/10 11:35:18;;;;;;;;;;;;;;;7.74;70.43;98995.63;5312848;32;37254;-71
2022/12/10 11:38:20;;;;;;;;;;;;;;;7.51;70.87;98991.53;5320720;32;44752;-71
2022/12/10 11:41:27;;;;;;;;;;;;;;;8.34;68.51;98977.72;5298119;32;35773;-76
2022/12/10 11:44:29;;;;;;;;;;;;;;;8.44;67.93;98979.87;5307573;32;35456;-68
2022/12/10 11:47:35;;;;;;;;;;;;;;;7.48;69.87;98978.59;5303267;32;34728;-69
2022/12/10 11:50:47;;;;;;;;;;;;;;;7.41;71.14;98976.38;5322135;32;36082;-78
2022/12/10 11:53:55;;;;;;;;;;;;;;;6.91;74.56;98970.00;5307811;32;35738;-77
2022/12/10 11:56:57;;;;;;;;;;;;;;;7.31;73.75;98955.88;5304452;32;44573;-75
2022/12/10 12:00:00;;;;;;;;;;;;;;;7.27;72.69;98949.09;5324415;32;36188;-77
2022/12/10 12:03:09;;;;;;;;;;;;;;;7.62;72.40;98941.31;5306614;32;35675;-77
2022/12/10 12:06:32;;;;;;;;;;;;;;;7.73;72.35;98943.38;5321043;32;34537;-67
2022/12/10 12:09:39;;;;;;;;;;;;;;;7.40;73.44;98943.28;5308313;32;35711;-77
2022/12/10 12:12:41;;;;;;;;;;;;;;;6.74;75.31;98955.09;5305687;32;37458;-68
2022/12/10 12:15:45;;;;;;;;;;;;;;;7.37;73.28;98944.28;5323297;32;35819;-67
2022/12/10 12:18:59;;;;;;;;;;;;;;;6.87;72.81;98946.72;5303560;32;36986;-77
2022/12/10 12:22:04;;;;;;;;;;;;;;;6.76;74.92;98936.75;5324480;32;35231;-68
2022/12/10 12:25:07;;;;;;;;;;;;;;;6.08;76.80;98935.50;5309312;32;35464;-68
2022/12/10 12:28:29;;;;;;;;;;;;;;;6.41;76.50;98939.22;5313771;32;37708;-77
2022/12/10 12:31:35;;;;;;;;;;;;;;;6.33;76.25;98928.28;5320842;32;35204;-69
2022/12/10 12:34:41;;;;;;;;;;;;;;;6.71;76.02;98926.53;5308371;32;35934;-77
2022/12/10 12:37:47;;;;;;;;;;;;;;;5.70;79.28;98940.56;5326193;32;35971;-78
2022/12/10 12:40:53;;;;;;;;;;;;;;;6.83;75.34;98926.87;5306482;32;35209;-77
2022/12/10 12:44:04;;;;;;;;;;;;;;;6.17;77.11;98928.13;5293681;32;43464;-68
2022/12/10 12:47:25;;;;;;;;;;;;;;;6.59;76.32;98924.50;5315263;32;35946;-78
2022/12/10 12:50:39;;;;;;;;;;;;;;;6.33;78.00;98928.28;5310641;32;45387;-68
2022/12/10 12:53:41;;;;;;;;;;;;;;;6.88;76.87;98925.72;5326127;32;36136;-68
2022/12/10 12:56:46;;;;;;;;;;;;;;;6.37;76.68;98932.44;5309740;32;35013;-67
2022/12/10 12:59:53;;;;;;;;;;;;;;;6.70;75.85;98932.69;5323131;32;35561;-68
2022/12/10 13:02:58;;;;;;;;;;;;;;;6.89;74.34;98940.50;5318378;32;44553;-79
2022/12/10 13:06:20;;;;;;;;;;;;;;;6.69;76.48;98948.41;5308999;32;35744;-68
2022/12/10 13:09:26;;;;;;;;;;;;;;;6.87;75.44;98937.09;5326248;32;44469;-78
2022/12/10 13:12:29;;;;;;;;;;;;;;;6.43;76.90;98949.59;5309847;32;35322;-81
2022/12/10 13:15:34;;;;;;;;;;;;;;;6.61;77.56;98950.53;5320418;32;35459;-69
2022/12/10 13:18:38;;;;;;;;;;;;;;;6.31;76.89;98948.41;5312827;32;36256;-68
2022/12/10 13:21:56;;;;;;;;;;;;;;;5.81;80.92;98972.28;5308397;32;35496;-77
2022/12/10 13:25:11;;;;;;;;;;;;;;;6.33;79.77;98957.00;5334881;32;46031;-77
2022/12/10 13:28:20;;;;;;;;;;;;;;;6.55;78.14;98954.25;5309399;32;34923;-67
2022/12/10 13:31:32;;;;;;;;;;;;;;;6.86;75.86;98952.84;5319319;32;44992;-77
2022/12/10 13:34:35;;;;;;;;;;;;;;;6.02;79.16;98954.88;5316946;32;36057;-76
2022/12/10 13:37:48;;;;;;;;;;;;;;;5.91;81.50;98950.13;5309282;32;35264;-68
2022/12/10 13:44:35;;;;;;;;;;;;;;;6.74;75.55;98943.81;5294413;32;45051;-70
2022/12/10 13:47:37;;;;;;;;;;;;;;;5.92;80.63;98954.41;5300027;32;37593;-77
2022/12/10 13:51:01;;;;;;;;;;;;;;;6.10;79.78;98951.94;5320963;32;35762;-79
2022/12/10 13:54:21;;;;;;;;;;;;;;;6.08;78.30;98944.19;5309309;32;34820;-78
2022/12/10 13:57:42;;;;;;;;;;;;;;;6.18;79.52;98935.06;5325170;32;44794;-76
2022/12/10 14:01:06;;;;;;;;;;;;;;;5.72;79.81;98930.94;5306739;32;34682;-76
2022/12/10 14:04:37;;;;;;;;;;;;;;;6.13;79.01;98928.34;5309364;32;35525;-78
2022/12/10 14:07:39;;;;;;;;;;;;;;;6.44;78.06;98930.41;5302035;32;35207;-77
2022/12/10 14:10:42;;;;;;;;;;;;;;;6.32;78.93;98918.78;5306703;32;33859;-68
2022/12/10 14:13:44;;;;;;;;;;;;;;;6.01;80.48;98913.22;5324849;32;35836;-76
2022/12/10 14:16:46;;;;;;;;;;;;;;;6.49;78.51;98918.00;5311306;32;35595;-67
2022/12/10 14:19:49;;;;;;;;;;;;;;;6.37;79.02;98914.16;5304471;32;35199;-68
2022/12/10 14:22:52;;;;;;;;;;;;;;;6.07;79.42;98916.41;5318973;32;46306;-68
2022/12/10 14:25:54;;;;;;;;;;;;;;;7.00;75.32;98925.16;5307783;32;35456;-77
2022/12/10 14:28:58;;;;;;;;;;;;;;;6.24;77.51;98923.47;5327092;32;35388;-70
2022/12/10 14:31:59;;;;;;;;;;;;;;;6.05;78.83;98930.41;5309536;32;35510;-69
2022/12/10 14:35:03;;;;;;;;;;;;;;;5.30;80.96;98931.81;5318835;32;35329;-67
2022/12/10 14:38:05;;;;;;;;;;;;;;;5.41;83.15;98926.16;5310705;32;34815;-79
2022/12/10 14:41:07;;;;;;;;;;;;;;;6.76;77.58;98921.97;5301079;32;35060;-68
2022/12/10 14:44:11;;;;;;;;;;;;;;;5.82;79.46;98919.19;5301188;32;35460;-68
2022/12/10 14:47:16;;;;;;;;;;;;;;;6.56;76.15;98922.00;5305700;32;35579;-69
2022/12/10 14:50:18;;;;;;;;;;;;;;;6.55;76.17;98922.09;5323629;32;35534;-68
2022/12/10 14:53:25;;;;;;;;;;;;;;;6.22;79.60;98925.31;5307595;32;44754;-76
2022/12/10 14:56:33;;;;;;;;;;;;;;;6.80;75.72;98922.66;5314977;32;34656;-77
2022/12/10 14:59:40;;;;;;;;;;;;;;;6.08;76.41;98917.25;5320466;32;36366;-67
2022/12/10 15:02:44;;;;;;;;;;;;;;;5.72;80.86;98915.28;5304886;32;35491;-67
2022/12/10 15:05:53;;;;;;;;;;;;;;;5.68;80.75;98927.63;5325074;32;35935;-67
2022/12/10 15:08:55;;;;;;;;;;;;;;;6.66;76.64;98912.84;5307616;32;44613;-69
2022/12/10 15:11:58;;;;;;;;;;;;;;;6.53;77.11;98914.34;5321955;32;36085;-77
2022/12/10 15:15:21;;;;;;;;;;;;;;;6.70;76.45;98908.34;5306232;32;35604;-67
2022/12/10 15:18:34;;;;;;;;;;;;;;;6.11;78.41;98902.28;5306849;32;43570;-67
2022/12/10 15:21:45;;;;;;;;;;;;;;;6.12;79.03;98895.34;5322264;32;37059;-67
2022/12/10 15:24:47;;;;;;;;;;;;;;;6.42;77.53;98901.75;5299321;32;34867;-67
2022/12/10 15:28:12;;;;;;;;;;;;;;;5.84;79.86;98899.12;5323371;32;35258;-77
2022/12/10 15:31:26;;;;;;;;;;;;;;;6.10;80.22;98897.16;5311142;32;35889;-67
2022/12/10 15:34:29;;;;;;;;;;;;;;;6.24;78.51;98900.00;5308054;32;44541;-66
2022/12/10 15:37:34;;;;;;;;;;;;;;;5.77;78.60;98900.28;5317553;32;35959;-75
2022/12/10 15:40:37;;;;;;;;;;;;;;;6.04;79.86;98889.59;5302544;32;35132;-67
2022/12/10 15:43:38;;;;;;;;;;;;;;;6.28;77.73;98885.91;5297254;32;34853;-76
2022/12/10 15:46:50;;;;;;;;;;;;;;;5.56;80.99;98888.19;5304426;32;35820;-75
2022/12/10 15:49:54;;;;;;;;;;;;;;;6.18;79.60;98875.06;5308143;32;46091;-67
2022/12/10 15:52:56;;;;;;;;;;;;;;;5.69;81.61;98884.16;5323974;32;35576;-76
2022/12/10 15:55:57;;;;;;;;;;;;;;;6.07;80.73;98885.09;5309726;32;34724;-76
2022/12/10 15:58:59;;;;;;;;;;;;;;;5.68;81.19;98883.31;5327265;32;35184;-77
2022/12/10 16:02:02;;;;;;;;;;;;;;;5.84;82.26;98886.06;5309818;32;35207;-67
2022/12/10 16:05:10;;;;;;;;;;;;;;;6.85;77.86;98878.88;5325969;32;36171;-76
2022/12/10 16:08:17;;;;;;;;;;;;;;;6.24;77.99;98868.69;5313996;32;35510;-68
2022/12/10 16:11:19;;;;;;;;;;;;;;;5.96;79.20;98864.72;5305741;32;35235;-76
2022/12/10 16:14:21;;;;;;;;;;;;;;;6.21;80.36;98861.00;5326863;32;44518;-75
2022/12/10 16:17:23;;;;;;;;;;;;;;;5.88;81.39;98863.34;5310024;32;34822;-77
2022/12/10 16:20:26;;;;;;;;;;;;;;;5.52;81.87;98863.16;5326808;32;35109;-68
2022/12/10 16:23:28;;;;;;;;;;;;;;;6.41;79.44;98852.25;5311856;32;36051;-68
2022/12/10 16:26:30;;;;;;;;;;;;;;;5.96;80.97;98856.03;5319246;32;36042;-67